Time;durP1;ratioP1;P1;durP2;ratioP2;P2;SDS_P1;SDS_P2;PMS_P1;PMS_P2;Temp;Humidity;BMP_temperature;BMP_pressure;BME280_temperature;BME280_humidity;BME280_pressure;Samples;Min_cycle;Max_cycle;Signal;HPM_P1;HPM_P2
2022/03/30 00:00:18;;;;;;;0.10;0.10;;;;;;;;;;6267240;22;20181;-78
2022/03/30 00:02:44;;;;;;;0.10;0.10;;;;;;;;;;6223336;23;20178;-76
2022/03/30 00:05:12;;;;;;;0.10;0.10;;;;;;;;;;6207667;22;20215;-77
2022/03/30 00:07:41;;;;;;;0.10;0.10;;;;;;;;;;6223248;23;20187;-77
2022/03/30 00:10:09;;;;;;;0.10;0.10;;;;;;;;;;6208180;22;20180;-78
2022/03/30 00:12:37;;;;;;;0.10;0.10;;;;;;;;;;6223291;23;20162;-78
2022/03/30 00:15:06;;;;;;;0.10;0.10;;;;;;;;;;6222935;23;20185;-78
2022/03/30 00:17:34;;;;;;;0.10;0.10;;;;;;;;;;6183249;23;20230;-79
2022/03/30 00:20:02;;;;;;;0.10;0.10;;;;;;;;;;6223237;23;20182;-77
2022/03/30 00:22:28;;;;;;;0.10;0.10;;;;;;;;;;6207991;22;20479;-77
2022/03/30 00:24:55;;;;;;;0.10;0.10;;;;;;;;;;6223131;23;20299;-78
2022/03/30 00:27:21;;;;;;;0.10;0.10;;;;;;;;;;6243934;22;20281;-78
2022/03/30 00:29:49;;;;;;;0.10;0.10;;;;;;;;;;6286992;22;20207;-78
2022/03/30 00:32:16;;;;;;;0.10;0.10;;;;;;;;;;6295573;22;20270;-77
2022/03/30 00:34:44;;;;;;;0.10;0.10;;;;;;;;;;6286119;22;20209;-76
2022/03/30 00:37:11;;;;;;;0.10;0.10;;;;;;;;;;6295761;22;20216;-77
2022/03/30 00:39:37;;;;;;;0.10;0.10;;;;;;;;;;6287254;22;20172;-78
2022/03/30 00:42:13;;;;;;;0.10;0.10;;;;;;;;;;6294975;22;20284;-78
2022/03/30 00:44:39;;;;;;;0.10;0.10;;;;;;;;;;6287137;22;20198;-77
2022/03/30 00:47:14;;;;;;;0.10;0.10;;;;;;;;;;6295575;22;20229;-76
2022/03/30 00:49:40;;;;;;;0.10;0.10;;;;;;;;;;6286395;22;20174;-78
2022/03/30 00:52:07;;;;;;;0.10;0.10;;;;;;;;;;6295607;22;20376;-77
2022/03/30 00:54:34;;;;;;;0.10;0.10;;;;;;;;;;6287087;22;20386;-77
2022/03/30 00:57:00;;;;;;;0.10;0.10;;;;;;;;;;6294420;22;20209;-78
2022/03/30 00:59:38;;;;;;;0.10;0.10;;;;;;;;;;6287354;22;20380;-79
2022/03/30 01:05:15;;;;;;;0.10;0.10;;;;;;;;;;6116345;23;20279;-78
2022/03/30 01:07:42;;;;;;;0.10;0.10;;;;;;;;;;6192694;23;20211;-79
2022/03/30 01:10:10;;;;;;;0.10;0.10;;;;;;;;;;6177670;23;20188;-78
2022/03/30 01:12:42;;;;;;;0.10;0.10;;;;;;;;;;6192787;23;20512;-78
2022/03/30 01:15:31;;;;;;;0.10;0.10;;;;;;;;;;6176946;23;20200;-79
2022/03/30 01:17:57;;;;;;;0.10;0.10;;;;;;;;;;6192688;23;20484;-78
2022/03/30 01:20:25;;;;;;;0.10;0.10;;;;;;;;;;6177644;23;20182;-78
2022/03/30 01:22:54;;;;;;;0.10;0.10;;;;;;;;;;6192372;23;20248;-77
2022/03/30 01:25:23;;;;;;;0.10;0.10;;;;;;;;;;6177385;23;20280;-78
2022/03/30 01:27:51;;;;;;;0.10;0.10;;;;;;;;;;6236944;23;20403;-78
2022/03/30 01:33:03;;;;;;;0.10;0.10;;;;;;;;;;6273375;22;20205;-78
2022/03/30 01:35:30;;;;;;;0.10;0.10;;;;;;;;;;6244580;22;20270;-78
2022/03/30 01:37:58;;;;;;;0.10;0.10;;;;;;;;;;6275058;22;20201;-78
2022/03/30 01:40:24;;;;;;;0.10;0.10;;;;;;;;;;6243663;22;20167;-79
2022/03/30 01:45:53;;;;;;;0.10;0.10;;;;;;;;;;6224962;22;20212;-79
2022/03/30 01:48:20;;;;;;;0.10;0.10;;;;;;;;;;6191913;23;20187;-78
2022/03/30 01:50:46;;;;;;;0.10;0.10;;;;;;;;;;6177183;23;20275;-78
2022/03/30 01:53:15;;;;;;;0.10;0.10;;;;;;;;;;6192297;23;20605;-77
2022/03/30 01:55:44;;;;;;;0.10;0.10;;;;;;;;;;6177209;23;20216;-77
2022/03/30 01:58:10;;;;;;;0.10;0.10;;;;;;;;;;6192209;23;20184;-78
2022/03/30 02:00:38;;;;;;;0.10;0.10;;;;;;;;;;6177583;23;20212;-78
2022/03/30 02:03:05;;;;;;;0.10;0.10;;;;;;;;;;6192225;23;20188;-78
2022/03/30 02:05:32;;;;;;;0.10;0.10;;;;;;;;;;6176601;23;20215;-77
2022/03/30 02:07:58;;;;;;;0.10;0.10;;;;;;;;;;6192231;23;20476;-78
2022/03/30 02:10:28;;;;;;;0.10;0.10;;;;;;;;;;6176999;23;20187;-77
2022/03/30 02:12:58;;;;;;;0.10;0.10;;;;;;;;;;6242739;23;20203;-77
2022/03/30 02:15:24;;;;;;;0.10;0.10;;;;;;;;;;6243107;22;20190;-79
2022/03/30 02:17:51;;;;;;;0.10;0.10;;;;;;;;;;6275538;22;20259;-78
2022/03/30 02:20:18;;;;;;;0.10;0.10;;;;;;;;;;6241694;22;20182;-78
2022/03/30 02:22:48;;;;;;;0.10;0.10;;;;;;;;;;6276997;22;20187;-78
2022/03/30 02:25:14;;;;;;;0.10;0.10;;;;;;;;;;6241202;22;20191;-78
2022/03/30 02:27:42;;;;;;;0.10;0.10;;;;;;;;;;6277927;22;20206;-78
2022/03/30 02:30:08;;;;;;;0.10;0.10;;;;;;;;;;6240167;22;20206;-77
2022/03/30 02:32:36;;;;;;;0.10;0.10;;;;;;;;;;6278674;22;20191;-77
2022/03/30 02:35:02;;;;;;;0.10;0.10;;;;;;;;;;6255150;23;20196;-78
2022/03/30 02:37:29;;;;;;;0.10;0.10;;;;;;;;;;6264100;22;20256;-78
2022/03/30 02:39:55;;;;;;;0.10;0.10;;;;;;;;;;6255521;23;20226;-77
2022/03/30 02:42:24;;;;;;;0.10;0.10;;;;;;;;;;6263111;22;20211;-78
2022/03/30 02:44:52;;;;;;;0.10;0.10;;;;;;;;;;6256230;23;20222;-79
2022/03/30 02:48:17;;;;;;;0.10;0.10;;;;;;;;;;6265977;22;20233;-79
2022/03/30 02:50:05;;;;;;;0.10;0.10;;;;;;;;;;6257161;23;20183;-80
2022/03/30 02:52:32;;;;;;;0.10;0.10;;;;;;;;;;6240626;23;20188;-78
2022/03/30 02:54:58;;;;;;;0.10;0.10;;;;;;;;;;6257242;23;20374;-78
2022/03/30 02:57:25;;;;;;;0.10;0.10;;;;;;;;;;6266123;22;20438;-78
2022/03/30 02:59:53;;;;;;;0.10;0.10;;;;;;;;;;6257517;22;20179;-77
2022/03/30 03:02:32;;;;;;;0.10;0.10;;;;;;;;;;6265868;22;20218;-78
2022/03/30 03:04:58;;;;;;;0.10;0.10;;;;;;;;;;6256870;23;20205;-78
2022/03/30 03:07:26;;;;;;;0.10;0.10;;;;;;;;;;6265930;22;20269;-78
2022/03/30 03:09:55;;;;;;;0.10;0.10;;;;;;;;;;6257398;23;20183;-79
2022/03/30 03:12:24;;;;;;;0.10;0.10;;;;;;;;;;6261886;22;20211;-79
2022/03/30 03:14:51;;;;;;;0.10;0.10;;;;;;;;;;6257180;23;20195;-78
2022/03/30 03:17:26;;;;;;;0.10;0.10;;;;;;;;;;6265702;22;20215;-78
2022/03/30 03:19:54;;;;;;;0.10;0.10;;;;;;;;;;6256715;23;20182;-77
2022/03/30 03:23:01;;;;;;;0.10;0.10;;;;;;;;;;6264614;22;20221;-79
2022/03/30 03:40:51;;;;;;;;;;;;;;;;;;;;;
2022/03/30 03:43:40;;;;;;;0.10;0.10;;;;;;;;;;6165141;22;20187;-78
2022/03/30 03:46:26;;;;;;;0.10;0.10;;;;;;;;;;6217963;22;20215;-77
2022/03/30 03:49:24;;;;;;;0.10;0.10;;;;;;;;;;6224017;23;20542;-78
2022/03/30 03:51:51;;;;;;;0.10;0.10;;;;;;;;;;6209288;23;20238;-78
2022/03/30 03:54:26;;;;;;;0.10;0.10;;;;;;;;;;6224055;23;20203;-79
2022/03/30 03:57:00;;;;;;;0.10;0.10;;;;;;;;;;6208804;23;20222;-78
2022/03/30 03:59:26;;;;;;;0.10;0.10;;;;;;;;;;6223257;23;20180;-78
2022/03/30 04:01:55;;;;;;;0.20;0.20;;;;;;;;;;6207367;23;20313;-78
2022/03/30 04:04:23;;;;;;;0.13;0.13;;;;;;;;;;6223261;23;20179;-77
2022/03/30 04:06:50;;;;;;;0.10;0.10;;;;;;;;;;6208049;23;20215;-78
2022/03/30 04:09:20;;;;;;;0.17;0.17;;;;;;;;;;6223585;23;20250;-77
2022/03/30 04:11:50;;;;;;;0.17;0.17;;;;;;;;;;6205921;23;20275;-78
2022/03/30 04:14:19;;;;;;;0.10;0.10;;;;;;;;;;6253140;23;20506;-79
2022/03/30 04:16:46;;;;;;;0.10;0.10;;;;;;;;;;6260666;22;20210;-78
2022/03/30 04:19:15;;;;;;;0.10;0.10;;;;;;;;;;6259877;22;20174;-78
2022/03/30 04:21:42;;;;;;;0.13;0.13;;;;;;;;;;6234166;22;20221;-77
2022/03/30 04:24:09;;;;;;;0.10;0.10;;;;;;;;;;6260479;22;20221;-79
2022/03/30 04:26:38;;;;;;;0.10;0.10;;;;;;;;;;6258956;22;20303;-78
2022/03/30 04:29:05;;;;;;;0.13;0.13;;;;;;;;;;6261416;22;20186;-78
2022/03/30 04:31:35;;;;;;;0.10;0.10;;;;;;;;;;6258293;22;20422;-77
2022/03/30 04:34:04;;;;;;;0.10;0.10;;;;;;;;;;6262820;22;20182;-78
2022/03/30 04:36:32;;;;;;;0.10;0.10;;;;;;;;;;6257113;22;20217;-77
2022/03/30 04:38:58;;;;;;;0.10;0.10;;;;;;;;;;6263025;22;20225;-78
2022/03/30 04:41:24;;;;;;;0.10;0.10;;;;;;;;;;6257179;22;20285;-80
2022/03/30 04:43:52;;;;;;;0.10;0.10;;;;;;;;;;6264611;22;20192;-78
2022/03/30 04:46:19;;;;;;;0.10;0.10;;;;;;;;;;6254983;22;20398;-78
2022/03/30 04:48:45;;;;;;;0.10;0.10;;;;;;;;;;6265475;22;20171;-77
2022/03/30 04:51:12;;;;;;;0.10;0.10;;;;;;;;;;6253772;22;20214;-78
2022/03/30 04:53:38;;;;;;;0.10;0.10;;;;;;;;;;6266429;22;20172;-77
2022/03/30 04:58:50;;;;;;;0.10;0.10;;;;;;;;;;6262868;22;20247;-77
2022/03/30 05:01:35;;;;;;;0.10;0.10;;;;;;;;;;6253765;22;20213;-78
2022/03/30 05:04:17;;;;;;;0.10;0.10;;;;;;;;;;6262311;22;20202;-79
2022/03/30 05:06:51;;;;;;;0.10;0.10;;;;;;;;;;6237561;22;20211;-77
2022/03/30 05:09:24;;;;;;;0.10;0.10;;;;;;;;;;6256390;23;20197;-76
2022/03/30 05:11:58;;;;;;;0.10;0.10;;;;;;;;;;6216390;22;20212;-78
2022/03/30 05:14:33;;;;;;;0.10;0.10;;;;;;;;;;6222913;23;20222;-77
2022/03/30 05:17:01;;;;;;;0.10;0.10;;;;;;;;;;6204228;23;20322;-77
2022/03/30 05:19:53;;;;;;;0.10;0.10;;;;;;;;;;6222863;23;20454;-77
2022/03/30 05:22:19;;;;;;;0.10;0.10;;;;;;;;;;6152266;23;20221;-80
2022/03/30 05:24:46;;;;;;;0.10;0.10;;;;;;;;;;6162507;23;20188;-77
2022/03/30 05:27:13;;;;;;;0.10;0.10;;;;;;;;;;6147953;23;20264;-77
2022/03/30 05:29:40;;;;;;;0.10;0.10;;;;;;;;;;6162577;23;20186;-78
2022/03/30 05:32:08;;;;;;;0.10;0.10;;;;;;;;;;6147969;23;20213;-79
2022/03/30 05:34:34;;;;;;;0.10;0.10;;;;;;;;;;6162533;23;20227;-77
2022/03/30 05:37:00;;;;;;;0.10;0.10;;;;;;;;;;6160999;23;20301;-77
2022/03/30 05:39:27;;;;;;;0.10;0.10;;;;;;;;;;6192663;23;20270;-78
2022/03/30 05:41:53;;;;;;;0.10;0.10;;;;;;;;;;6195864;23;20282;-77
2022/03/30 05:44:20;;;;;;;0.10;0.10;;;;;;;;;;6194382;23;20240;-77
2022/03/30 05:46:57;;;;;;;0.10;0.10;;;;;;;;;;6193379;23;20258;-80
2022/03/30 05:49:44;;;;;;;0.10;0.10;;;;;;;;;;6195319;23;20191;-79
2022/03/30 05:52:38;;;;;;;0.10;0.10;;;;;;;;;;6197035;23;20225;-80
2022/03/30 05:55:08;;;;;;;0.20;0.20;;;;;;;;;;6181740;23;20191;-78
2022/03/30 05:57:35;;;;;;;0.10;0.10;;;;;;;;;;6212628;23;20173;-78
2022/03/30 06:00:01;;;;;;;0.10;0.10;;;;;;;;;;6192519;23;20395;-79
2022/03/30 06:02:29;;;;;;;0.10;0.10;;;;;;;;;;6199181;23;20219;-78
2022/03/30 06:04:56;;;;;;;0.10;0.10;;;;;;;;;;6192815;23;20183;-78
2022/03/30 06:07:22;;;;;;;0.10;0.10;;;;;;;;;;6174349;23;20275;-79
2022/03/30 06:09:48;;;;;;;0.10;0.10;;;;;;;;;;6193042;23;20240;-77
2022/03/30 06:12:16;;;;;;;0.20;0.20;;;;;;;;;;6209762;22;20222;-78
2022/03/30 06:14:45;;;;;;;0.10;0.10;;;;;;;;;;6256408;23;20183;-79
2022/03/30 06:17:12;;;;;;;0.10;0.10;;;;;;;;;;6263700;22;20212;-78
2022/03/30 06:19:38;;;;;;;0.10;0.10;;;;;;;;;;6255760;23;20235;-79
2022/03/30 06:22:08;;;;;;;0.10;0.10;;;;;;;;;;6263473;22;20217;-77
2022/03/30 06:24:35;;;;;;;0.10;0.10;;;;;;;;;;6255453;23;20185;-77
2022/03/30 06:27:02;;;;;;;0.10;0.10;;;;;;;;;;6263249;22;20422;-76
2022/03/30 06:29:30;;;;;;;0.10;0.10;;;;;;;;;;6256335;22;20172;-79
2022/03/30 06:31:59;;;;;;;0.10;0.10;;;;;;;;;;6261933;22;20210;-78
2022/03/30 06:34:25;;;;;;;0.10;0.10;;;;;;;;;;6256820;22;20225;-78
2022/03/30 06:36:53;;;;;;;0.10;0.10;;;;;;;;;;6262257;22;20233;-78
2022/03/30 06:39:19;;;;;;;0.10;0.10;;;;;;;;;;6257573;22;20242;-78
2022/03/30 06:41:45;;;;;;;0.10;0.10;;;;;;;;;;6260534;22;20226;-78
2022/03/30 06:44:11;;;;;;;0.10;0.10;;;;;;;;;;6258921;22;20191;-78
2022/03/30 06:46:42;;;;;;;0.10;0.10;;;;;;;;;;6258098;22;20439;-78
2022/03/30 06:49:09;;;;;;;0.10;0.10;;;;;;;;;;6260286;22;20199;-78
2022/03/30 06:51:36;;;;;;;0.10;0.10;;;;;;;;;;6258034;22;20256;-78
2022/03/30 06:54:03;;;;;;;0.20;0.20;;;;;;;;;;6260666;22;20378;-77
2022/03/30 06:56:31;;;;;;;0.10;0.10;;;;;;;;;;6256235;22;20478;-77
2022/03/30 06:58:57;;;;;;;0.10;0.10;;;;;;;;;;6262064;22;20176;-78
2022/03/30 07:01:24;;;;;;;0.10;0.10;;;;;;;;;;6255395;22;20226;-79
2022/03/30 07:03:52;;;;;;;0.17;0.17;;;;;;;;;;6263498;22;20172;-77
2022/03/30 07:06:19;;;;;;;0.10;0.10;;;;;;;;;;6254179;22;20553;-78
2022/03/30 07:11:44;;;;;;;0.10;0.10;;;;;;;;;;6256542;22;20245;-77
2022/03/30 07:14:10;;;;;;;0.10;0.10;;;;;;;;;;6259891;22;20191;-77
2022/03/30 07:16:38;;;;;;;0.10;0.10;;;;;;;;;;6256209;22;20245;-77
2022/03/30 07:19:07;;;;;;;0.10;0.10;;;;;;;;;;6261061;22;20235;-77
2022/03/30 07:21:34;;;;;;;0.10;0.10;;;;;;;;;;6257282;22;20210;-79
2022/03/30 07:24:00;;;;;;;0.10;0.10;;;;;;;;;;6261309;22;20354;-78
2022/03/30 07:26:27;;;;;;;0.10;0.10;;;;;;;;;;6255992;22;20213;-77
2022/03/30 07:28:53;;;;;;;0.10;0.10;;;;;;;;;;6262193;22;20179;-78
2022/03/30 07:31:20;;;;;;;0.10;0.10;;;;;;;;;;6255934;22;20214;-79
2022/03/30 07:33:46;;;;;;;0.10;0.10;;;;;;;;;;6265556;22;20378;-79
2022/03/30 07:36:14;;;;;;;0.10;0.10;;;;;;;;;;6254951;22;20223;-77
2022/03/30 07:38:43;;;;;;;0.10;0.10;;;;;;;;;;6267537;22;20370;-77
2022/03/30 07:41:38;;;;;;;0.10;0.10;;;;;;;;;;6261540;22;20357;-78
2022/03/30 07:44:05;;;;;;;0.10;0.10;;;;;;;;;;6256468;23;20348;-78
2022/03/30 07:46:34;;;;;;;0.10;0.10;;;;;;;;;;6257477;22;20274;-77
2022/03/30 07:49:04;;;;;;;0.10;0.10;;;;;;;;;;6264859;22;20181;-78
2022/03/30 07:51:42;;;;;;;0.10;0.10;;;;;;;;;;6223010;22;20218;-78
2022/03/30 07:54:22;;;;;;;0.10;0.10;;;;;;;;;;6217882;23;20416;-77
2022/03/30 07:56:49;;;;;;;0.10;0.10;;;;;;;;;;6208921;23;20215;-77
2022/03/30 07:59:15;;;;;;;0.10;0.10;;;;;;;;;;6223949;23;20180;-79
2022/03/30 08:01:54;;;;;;;0.10;0.10;;;;;;;;;;6168457;23;20414;-79
2022/03/30 08:04:21;;;;;;;0.10;0.10;;;;;;;;;;6163695;23;20405;-77
2022/03/30 08:06:50;;;;;;;0.10;0.10;;;;;;;;;;6148969;23;20489;-78
2022/03/30 08:09:27;;;;;;;0.10;0.10;;;;;;;;;;6163388;23;20245;-79
2022/03/30 08:11:57;;;;;;;0.10;0.10;;;;;;;;;;6148281;23;20236;-79
2022/03/30 08:14:24;;;;;;;0.10;0.10;;;;;;;;;;6163265;23;20183;-76
2022/03/30 08:16:50;;;;;;;0.10;0.10;;;;;;;;;;6153381;23;20449;-77
2022/03/30 08:19:16;;;;;;;0.10;0.10;;;;;;;;;;6193146;23;20189;-78
2022/03/30 08:24:28;;;;;;;0.10;0.10;;;;;;;;;;6194370;23;20237;-79
2022/03/30 08:26:55;;;;;;;0.10;0.10;;;;;;;;;;6225780;22;20264;-77
2022/03/30 08:29:23;;;;;;;0.10;0.10;;;;;;;;;;6257984;22;20197;-77
2022/03/30 08:31:50;;;;;;;0.10;0.10;;;;;;;;;;6261152;22;20284;-77
2022/03/30 08:34:18;;;;;;;0.10;0.10;;;;;;;;;;6259420;22;20170;-78
2022/03/30 08:36:45;;;;;;;0.10;0.10;;;;;;;;;;6239249;22;20506;-78
2022/03/30 08:39:12;;;;;;;0.10;0.10;;;;;;;;;;6256246;23;20230;-76
2022/03/30 08:41:42;;;;;;;0.10;0.10;;;;;;;;;;6258065;22;20281;-77
2022/03/30 08:44:09;;;;;;;0.10;0.10;;;;;;;;;;6261003;22;20239;-78
2022/03/30 08:46:37;;;;;;;0.10;0.10;;;;;;;;;;6258186;22;20256;-77
2022/03/30 08:49:04;;;;;;;0.10;0.10;;;;;;;;;;6261078;22;20179;-77
2022/03/30 08:51:39;;;;;;;0.10;0.10;;;;;;;;;;6254264;22;20219;-77
2022/03/30 08:54:06;;;;;;;0.10;0.10;;;;;;;;;;6261747;22;20202;-77
2022/03/30 08:56:33;;;;;;;0.10;0.10;;;;;;;;;;6257910;22;20278;-79
2022/03/30 08:59:07;;;;;;;0.10;0.10;;;;;;;;;;6262417;22;20190;-76
2022/03/30 09:01:33;;;;;;;0.10;0.10;;;;;;;;;;6258405;22;20210;-79
2022/03/30 09:04:02;;;;;;;0.10;0.10;;;;;;;;;;6262266;22;20184;-77
2022/03/30 09:06:30;;;;;;;0.10;0.10;;;;;;;;;;6257024;22;20246;-80
2022/03/30 09:08:57;;;;;;;0.10;0.10;;;;;;;;;;6263314;22;20414;-79
2022/03/30 09:11:41;;;;;;;0.10;0.10;;;;;;;;;;6256217;22;20530;-78
2022/03/30 09:14:12;;;;;;;0.10;0.10;;;;;;;;;;6261491;22;20366;-78
2022/03/30 09:16:40;;;;;;;0.10;0.10;;;;;;;;;;6259002;22;20211;-78
2022/03/30 09:19:08;;;;;;;0.10;0.10;;;;;;;;;;6260772;22;20183;-78
2022/03/30 09:21:41;;;;;;;0.10;0.10;;;;;;;;;;6257959;22;20227;-76
2022/03/30 09:24:07;;;;;;;0.10;0.10;;;;;;;;;;6260766;22;20365;-78
2022/03/30 09:26:34;;;;;;;0.10;0.10;;;;;;;;;;6258091;22;20213;-77
2022/03/30 09:29:02;;;;;;;0.10;0.10;;;;;;;;;;6261693;22;20485;-77
2022/03/30 09:31:32;;;;;;;0.10;0.10;;;;;;;;;;6256736;22;20226;-77
2022/03/30 09:34:02;;;;;;;0.10;0.10;;;;;;;;;;6262410;22;20185;-77
2022/03/30 09:36:29;;;;;;;0.10;0.10;;;;;;;;;;6257168;22;20403;-77
2022/03/30 09:38:56;;;;;;;0.10;0.10;;;;;;;;;;6262600;22;20211;-77
2022/03/30 09:41:22;;;;;;;0.10;0.10;;;;;;;;;;6255105;22;20233;-77
2022/03/30 09:43:49;;;;;;;0.10;0.10;;;;;;;;;;6264254;22;20179;-77
2022/03/30 09:46:16;;;;;;;0.10;0.10;;;;;;;;;;6253760;22;20270;-79
2022/03/30 09:48:49;;;;;;;0.10;0.10;;;;;;;;;;6265354;22;20501;-78
2022/03/30 09:51:16;;;;;;;0.10;0.10;;;;;;;;;;6254192;22;20447;-78
2022/03/30 09:53:43;;;;;;;0.10;0.10;;;;;;;;;;6264875;22;20202;-76
2022/03/30 09:56:13;;;;;;;0.10;0.10;;;;;;;;;;6252446;22;20219;-78
2022/03/30 10:01:29;;;;;;;0.10;0.10;;;;;;;;;;6240390;22;20211;-80
2022/03/30 10:04:09;;;;;;;0.10;0.10;;;;;;;;;;6255489;23;20205;-80
2022/03/30 10:06:40;;;;;;;0.10;0.10;;;;;;;;;;6239009;22;20442;-79
2022/03/30 10:09:11;;;;;;;0.10;0.10;;;;;;;;;;6255558;23;20179;-79
2022/03/30 10:11:53;;;;;;;0.10;0.10;;;;;;;;;;6258357;22;20227;-80
2022/03/30 10:14:35;;;;;;;0.10;0.10;;;;;;;;;;6266763;22;20237;-80
2022/03/30 10:17:19;;;;;;;0.10;0.10;;;;;;;;;;6245307;22;20390;-81
2022/03/30 10:20:03;;;;;;;0.10;0.10;;;;;;;;;;6254192;23;20247;-80
2022/03/30 10:25:53;;;;;;;0.10;0.10;;;;;;;;;;6148568;23;20531;-81
2022/03/30 10:28:44;;;;;;;0.10;0.10;;;;;;;;;;6162647;23;20226;-80
2022/03/30 10:31:26;;;;;;;0.10;0.10;;;;;;;;;;6147635;23;20430;-79
2022/03/30 10:34:06;;;;;;;0.10;0.10;;;;;;;;;;6162525;23;20186;-80
2022/03/30 10:44:57;;;;;;;0.10;0.10;;;;;;;;;;6241812;23;20200;-80
2022/03/30 10:47:29;;;;;;;0.10;0.10;;;;;;;;;;6264522;22;20207;-79
2022/03/30 10:49:57;;;;;;;0.10;0.10;;;;;;;;;;6255785;23;20181;-81
2022/03/30 11:15:11;;;;;;;0.10;0.10;;;;;;;;;;6256987;23;20181;-79
2022/03/30 11:18:07;;;;;;;0.10;0.10;;;;;;;;;;6119232;23;20191;-79
2022/03/30 11:20:55;;;;;;;0.10;0.10;;;;;;;;;;6145850;23;20216;-80
2022/03/30 11:23:58;;;;;;;0.10;0.10;;;;;;;;;;6104127;23;20300;-81
2022/03/30 11:27:15;;;;;;;;;;;;;;;;;;;;;
2022/03/30 11:36:05;;;;;;;0.10;0.10;;;;;;;;;;6121060;22;20260;-81
2022/03/30 11:38:47;;;;;;;0.10;0.10;;;;;;;;;;6317950;22;20177;-80
2022/03/30 11:41:35;;;;;;;0.10;0.10;;;;;;;;;;6273340;22;20221;-80
2022/03/30 11:47:01;;;;;;;0.10;0.10;;;;;;;;;;6167742;23;20257;-79
2022/03/30 11:49:32;;;;;;;0.10;0.10;;;;;;;;;;6245549;23;20183;-80
2022/03/30 11:52:14;;;;;;;0.10;0.10;;;;;;;;;;6234163;23;20213;-80
2022/03/30 11:54:49;;;;;;;0.10;0.10;;;;;;;;;;6254548;23;20177;-80
2022/03/30 11:58:05;;;;;;;0.10;0.10;;;;;;;;;;6234527;22;20208;-80
2022/03/30 12:03:41;;;;;;;0.10;0.10;;;;;;;;;;6249511;23;20241;-80
2022/03/30 12:06:14;;;;;;;0.10;0.10;;;;;;;;;;6241409;22;20552;-79
2022/03/30 12:11:38;;;;;;;0.10;0.10;;;;;;;;;;6285127;22;20449;-78
2022/03/30 12:14:32;;;;;;;0.10;0.10;;;;;;;;;;6317315;22;20181;-78
2022/03/30 12:20:36;;;;;;;0.10;0.10;;;;;;;;;;6174781;23;20171;-79
2022/03/30 12:23:23;;;;;;;0.10;0.10;;;;;;;;;;6163739;23;20322;-81
2022/03/30 12:40:11;;;;;;;0.10;0.10;;;;;;;;;;6286360;22;20160;-81
2022/03/30 12:42:59;;;;;;;0.10;0.10;;;;;;;;;;6243937;22;20357;-80
2022/03/30 12:45:41;;;;;;;0.10;0.10;;;;;;;;;;6273894;22;20215;-79
2022/03/30 12:48:21;;;;;;;0.10;0.10;;;;;;;;;;6303454;22;20377;-80
2022/03/30 12:50:59;;;;;;;0.10;0.10;;;;;;;;;;6265303;22;20217;-79
2022/03/30 12:53:35;;;;;;;0.10;0.10;;;;;;;;;;6253161;23;20212;-80
2022/03/30 12:56:27;;;;;;;0.10;0.10;;;;;;;;;;6234659;23;20452;-79
2022/03/30 13:01:49;;;;;;;0.10;0.10;;;;;;;;;;6186426;23;20449;-78
2022/03/30 13:04:30;;;;;;;0.10;0.10;;;;;;;;;;6253865;23;20356;-78
2022/03/30 13:07:06;;;;;;;0.10;0.10;;;;;;;;;;6214384;23;20554;-78
2022/03/30 13:09:35;;;;;;;0.10;0.10;;;;;;;;;;6222917;23;20184;-80
2022/03/30 13:12:02;;;;;;;0.10;0.10;;;;;;;;;;6207386;23;20290;-78
2022/03/30 13:14:29;;;;;;;0.10;0.10;;;;;;;;;;6222429;23;20420;-79
2022/03/30 13:16:56;;;;;;;0.10;0.10;;;;;;;;;;6207196;23;20237;-79
2022/03/30 13:19:25;;;;;;;0.10;0.10;;;;;;;;;;6223240;23;20185;-79
2022/03/30 13:21:55;;;;;;;0.10;0.10;;;;;;;;;;6207756;23;20214;-78
2022/03/30 13:24:23;;;;;;;0.10;0.10;;;;;;;;;;6223446;23;20351;-78
2022/03/30 13:26:55;;;;;;;0.10;0.10;;;;;;;;;;6229967;23;20534;-79
2022/03/30 13:29:24;;;;;;;0.10;0.10;;;;;;;;;;6224696;23;20536;-79
2022/03/30 13:34:39;;;;;;;0.10;0.10;;;;;;;;;;6280006;22;20204;-78
2022/03/30 13:37:07;;;;;;;0.10;0.10;;;;;;;;;;6293520;22;20239;-78
2022/03/30 13:39:34;;;;;;;0.10;0.10;;;;;;;;;;6286553;22;20181;-79
2022/03/30 13:42:01;;;;;;;0.10;0.10;;;;;;;;;;6293443;22;20418;-79
2022/03/30 13:44:27;;;;;;;0.10;0.10;;;;;;;;;;6286547;22;20179;-78
2022/03/30 13:46:55;;;;;;;0.10;0.10;;;;;;;;;;6292678;22;20219;-78
2022/03/30 13:49:41;;;;;;;0.10;0.10;;;;;;;;;;6288209;22;20236;-78
2022/03/30 13:52:08;;;;;;;0.10;0.10;;;;;;;;;;6294782;22;20263;-75
2022/03/30 13:54:34;;;;;;;0.10;0.10;;;;;;;;;;6286028;22;20237;-79
2022/03/30 13:57:00;;;;;;;0.10;0.10;;;;;;;;;;6293577;22;20213;-79
2022/03/30 13:59:27;;;;;;;0.10;0.10;;;;;;;;;;6286510;22;20186;-77
2022/03/30 14:01:55;;;;;;;0.10;0.10;;;;;;;;;;6292121;22;20294;-78
2022/03/30 14:04:21;;;;;;;0.10;0.10;;;;;;;;;;6287433;22;20186;-79
2022/03/30 14:06:48;;;;;;;0.10;0.10;;;;;;;;;;6290989;22;20221;-78
2022/03/30 14:09:14;;;;;;;0.10;0.10;;;;;;;;;;6289368;22;20201;-77
2022/03/30 14:11:40;;;;;;;0.10;0.10;;;;;;;;;;6288968;22;20278;-78
2022/03/30 14:14:07;;;;;;;0.10;0.10;;;;;;;;;;6290886;22;20496;-78
2022/03/30 14:16:34;;;;;;;0.10;0.10;;;;;;;;;;6288042;22;20218;-78
2022/03/30 14:19:02;;;;;;;0.10;0.10;;;;;;;;;;6291816;22;20177;-78
2022/03/30 14:21:28;;;;;;;0.10;0.10;;;;;;;;;;6287233;22;20254;-77
2022/03/30 14:23:55;;;;;;;0.10;0.10;;;;;;;;;;6292878;22;20187;-78
2022/03/30 14:26:21;;;;;;;0.10;0.10;;;;;;;;;;6285260;22;20560;-77
2022/03/30 14:28:47;;;;;;;0.10;0.10;;;;;;;;;;6294312;22;20204;-78
2022/03/30 14:31:14;;;;;;;0.10;0.10;;;;;;;;;;6284168;22;20459;-78
2022/03/30 14:33:40;;;;;;;0.10;0.10;;;;;;;;;;6295752;22;20422;-77
2022/03/30 14:36:08;;;;;;;0.10;0.10;;;;;;;;;;6282147;22;20209;-78
2022/03/30 14:38:35;;;;;;;0.10;0.10;;;;;;;;;;6297196;22;20340;-77
2022/03/30 14:41:01;;;;;;;0.10;0.10;;;;;;;;;;6282697;22;20253;-78
2022/03/30 14:43:28;;;;;;;0.10;0.10;;;;;;;;;;6300907;22;20276;-78
2022/03/30 14:45:54;;;;;;;0.10;0.10;;;;;;;;;;6281724;22;20283;-77
2022/03/30 14:48:20;;;;;;;0.10;0.10;;;;;;;;;;6301628;22;20224;-78
2022/03/30 14:50:48;;;;;;;0.10;0.10;;;;;;;;;;6292357;22;20380;-77
2022/03/30 14:53:36;;;;;;;0.10;0.10;;;;;;;;;;6288030;22;20199;-77
2022/03/30 14:56:03;;;;;;;0.10;0.10;;;;;;;;;;6283543;22;20219;-77
2022/03/30 14:58:29;;;;;;;0.10;0.10;;;;;;;;;;6273608;22;20176;-77
2022/03/30 15:00:57;;;;;;;0.10;0.10;;;;;;;;;;6281935;22;20470;-77
2022/03/30 15:03:24;;;;;;;0.10;0.10;;;;;;;;;;6300547;22;20485;-78
2022/03/30 15:05:50;;;;;;;0.10;0.10;;;;;;;;;;6280885;22;20210;-78
2022/03/30 15:08:17;;;;;;;0.10;0.10;;;;;;;;;;6301986;22;20246;-78
2022/03/30 15:10:45;;;;;;;0.10;0.10;;;;;;;;;;6279489;22;20219;-79
2022/03/30 15:13:11;;;;;;;0.10;0.10;;;;;;;;;;6303391;22;20179;-79
2022/03/30 15:15:38;;;;;;;0.10;0.10;;;;;;;;;;6278547;22;20237;-78
2022/03/30 15:18:04;;;;;;;0.10;0.10;;;;;;;;;;6304655;22;20495;-77
2022/03/30 15:20:45;;;;;;;0.10;0.10;;;;;;;;;;6266190;22;20257;-78
2022/03/30 15:23:12;;;;;;;0.10;0.10;;;;;;;;;;6287054;22;20181;-77
2022/03/30 15:25:38;;;;;;;0.10;0.10;;;;;;;;;;6277963;22;20320;-79
2022/03/30 15:28:07;;;;;;;0.10;0.10;;;;;;;;;;6304668;22;20203;-79
2022/03/30 15:30:33;;;;;;;0.10;0.10;;;;;;;;;;6276851;22;20210;-78
2022/03/30 15:33:17;;;;;;;0.10;0.10;;;;;;;;;;6306198;22;20236;-77
2022/03/30 15:35:44;;;;;;;0.10;0.10;;;;;;;;;;6279471;22;20217;-79
2022/03/30 15:38:11;;;;;;;0.10;0.10;;;;;;;;;;6303074;22;20184;-78
2022/03/30 15:40:37;;;;;;;0.10;0.10;;;;;;;;;;6278052;22;20219;-77
2022/03/30 15:43:06;;;;;;;0.10;0.10;;;;;;;;;;6304590;22;20371;-77
2022/03/30 15:45:33;;;;;;;0.10;0.10;;;;;;;;;;6277004;22;20210;-78
2022/03/30 15:48:00;;;;;;;0.10;0.10;;;;;;;;;;6305595;22;20244;-77
2022/03/30 15:50:26;;;;;;;0.10;0.10;;;;;;;;;;6275427;22;20217;-77
2022/03/30 15:52:57;;;;;;;0.10;0.10;;;;;;;;;;6307440;22;20233;-79
2022/03/30 15:55:24;;;;;;;0.10;0.10;;;;;;;;;;6298911;22;20185;-79
2022/03/30 15:57:51;;;;;;;0.10;0.10;;;;;;;;;;6307278;22;20180;-78
2022/03/30 16:00:19;;;;;;;0.10;0.10;;;;;;;;;;6273557;22;20238;-77
2022/03/30 16:02:46;;;;;;;0.10;0.10;;;;;;;;;;6308594;22;20191;-78
2022/03/30 16:05:13;;;;;;;0.10;0.10;;;;;;;;;;6272650;22;20180;-78
2022/03/30 16:08:54;;;;;;;0.10;0.10;;;;;;;;;;6309426;22;20351;-77
2022/03/30 16:10:26;;;;;;;0.10;0.10;;;;;;;;;;6274618;22;20220;-78
2022/03/30 16:12:52;;;;;;;0.10;0.10;;;;;;;;;;6307025;22;20242;-77
2022/03/30 16:15:20;;;;;;;0.10;0.10;;;;;;;;;;6273991;22;20370;-79
2022/03/30 16:17:47;;;;;;;0.10;0.10;;;;;;;;;;6308199;22;20236;-78
2022/03/30 16:20:19;;;;;;;0.10;0.10;;;;;;;;;;6272686;22;20211;-81
2022/03/30 16:22:47;;;;;;;0.10;0.10;;;;;;;;;;6308266;22;20166;-74
2022/03/30 16:25:14;;;;;;;0.10;0.10;;;;;;;;;;6273065;22;20185;-75
2022/03/30 16:27:40;;;;;;;0.10;0.10;;;;;;;;;;6309068;22;20250;-76
2022/03/30 16:30:07;;;;;;;0.10;0.10;;;;;;;;;;6287256;22;20300;-76
2022/03/30 16:32:35;;;;;;;0.10;0.10;;;;;;;;;;6244054;22;20237;-76
2022/03/30 16:35:03;;;;;;;0.10;0.10;;;;;;;;;;6286586;22;20218;-79
2022/03/30 16:37:32;;;;;;;0.10;0.10;;;;;;;;;;6296154;22;20231;-78
2022/03/30 16:39:58;;;;;;;0.10;0.10;;;;;;;;;;6288574;22;20172;-79
2022/03/30 16:42:33;;;;;;;0.10;0.10;;;;;;;;;;6296528;22;20221;-83
2022/03/30 16:45:00;;;;;;;0.10;0.10;;;;;;;;;;6288600;22;20215;-84
2022/03/30 16:47:26;;;;;;;0.10;0.10;;;;;;;;;;6296667;22;20215;-84
2022/03/30 16:49:55;;;;;;;0.10;0.10;;;;;;;;;;6287504;22;20282;-83
2022/03/30 16:52:22;;;;;;;0.13;0.13;;;;;;;;;;6297177;22;20210;-84